Terminal Aerodrome Forecast
Issued by NWS

Home | Current Version | Previous Version | Text Only | Print | Product List | Glossary On
Versions: 1 2 3 4 5 6 7 8 9 10 11 12 13 14 15 16
259
FTUS46 KSEW 230522
TAFBFI
TAF
KBFI 230522Z 2306/2406 VRB03KT P6SM SCT035
     FM231200 VRB03KT P6SM SCT006 BKN015
     FM231800 15004KT P6SM SCT018 BKN030
     FM232000 26004KT P6SM SKC
     FM240300 VRB03KT P6SM SCT060=

USA.gov is the U.S. government's official web portal to all federal, state and local government web resources and services.